Řízení letového provozu České republiky
Letiste: LKNA Aktualizace: 13.11.2019 20:05:27  UTC
 METAR LKNA 13.11. 20:00 ...
METAR LKNA 132000Z 28010KT CAVOK 02/02 Q1005 NOSIG RMK BLU BLU=
 TAF LKNA 13.11. 17:00 AAA
TAF AMD LKNA 131700Z 1320/1418 28010KT CAVOK      TEMPO 1400/1406 5000 BR SCT025      BECMG 1403/1405 15006KT 0400 FZFG VV001      BECMG 1410/1412 3000 BR OVC003      BECMG 1414/1416 8000 BKN015=